createdAt,value
2018-01-30T00:00:44.519Z,10.33
2018-01-30T00:03:12.532Z,8.20
2018-01-30T00:05:40.450Z,9.53
2018-01-30T00:08:08.532Z,8.43
2018-01-30T00:10:36.478Z,9.43
2018-01-30T00:13:04.432Z,8.90
2018-01-30T00:15:33.228Z,8.17
2018-01-30T00:18:01.946Z,8.00
2018-01-30T00:20:29.859Z,8.50
2018-01-30T00:22:58.075Z,8.23
2018-01-30T00:25:26.040Z,7.93
2018-01-30T00:27:54.852Z,8.00
2018-01-30T00:30:22.920Z,8.40
2018-01-30T00:32:50.865Z,7.53
2018-01-30T00:35:19.543Z,8.40
2018-01-30T00:37:48.412Z,8.10
2018-01-30T00:40:16.331Z,7.97
2018-01-30T00:42:44.345Z,7.63
2018-01-30T00:45:12.521Z,7.73
2018-01-30T00:47:40.445Z,7.37
2018-01-30T00:50:08.413Z,7.63
2018-01-30T00:52:36.465Z,7.53
2018-01-30T00:55:05.171Z,6.90
2018-01-30T00:57:33.078Z,8.23
2018-01-30T01:00:01.287Z,7.07
2018-01-30T01:02:29.959Z,7.33
2018-01-30T01:04:57.885Z,7.20
2018-01-30T01:07:25.977Z,7.07
2018-01-30T01:09:53.905Z,7.83
2018-01-30T01:12:22.697Z,7.00
2018-01-30T01:14:51.469Z,7.00
2018-01-30T01:17:19.483Z,7.57
2018-01-30T01:19:47.408Z,7.20
2018-01-30T01:22:16.486Z,7.60
2018-01-30T01:24:44.414Z,6.60
2018-01-30T01:27:12.546Z,7.90
2018-01-30T01:29:41.355Z,8.10
2018-01-30T01:32:09.994Z,6.87
2018-01-30T01:34:37.927Z,7.63
2018-01-30T01:37:06.104Z,8.00
2018-01-30T01:39:34.034Z,8.13
2018-01-30T01:42:01.953Z,8.57
2018-01-30T01:44:30.163Z,9.80
2018-01-30T01:46:58.217Z,8.90
2018-01-30T01:49:31.919Z,9.63
2018-01-30T01:51:59.825Z,8.73
2018-01-30T01:54:27.747Z,9.87
2018-01-30T01:56:55.816Z,9.10
2018-01-30T01:59:23.736Z,11.17
2018-01-30T02:01:51.633Z,11.90
2018-01-30T02:04:19.561Z,10.13
2018-01-30T02:06:47.489Z,10.77
2018-01-30T02:09:15.920Z,11.40
2018-01-30T02:11:43.849Z,9.90
2018-01-30T02:14:11.796Z,11.70
2018-01-30T02:16:39.721Z,11.40
2018-01-30T02:19:07.701Z,11.17
2018-01-30T02:21:35.841Z,11.27
2018-01-30T02:24:03.745Z,10.87
2018-01-30T02:26:31.800Z,10.63
2018-01-30T02:28:59.724Z,11.17
2018-01-30T02:31:27.684Z,12.60
2018-01-30T02:33:56.475Z,12.10
2018-01-30T02:36:25.284Z,11.97
2018-01-30T02:38:53.208Z,10.23
2018-01-30T02:41:21.260Z,12.63
2018-01-30T02:43:49.178Z,11.70
2018-01-30T02:46:17.174Z,12.60
2018-01-30T02:48:45.234Z,13.80
2018-01-30T02:51:13.404Z,12.03
2018-01-30T02:53:41.313Z,12.93
2018-01-30T02:56:09.380Z,11.63
2018-01-30T02:58:37.298Z,11.73
2018-01-30T03:01:05.993Z,14.70
2018-01-30T03:03:34.923Z,12.57
2018-01-30T03:06:02.872Z,13.13
2018-01-30T03:08:30.793Z,12.40
2018-01-30T03:10:58.840Z,12.93
2018-01-30T03:13:26.773Z,12.63
2018-01-30T03:15:54.702Z,11.83
2018-01-30T03:18:22.957Z,12.33
2018-01-30T03:20:50.899Z,12.30
2018-01-30T03:23:18.806Z,11.13
2018-01-30T03:25:46.844Z,13.23
2018-01-30T03:28:14.745Z,13.50
2018-01-30T03:30:42.682Z,13.20
2018-01-30T03:33:10.711Z,11.90
2018-01-30T03:35:38.636Z,12.40
2018-01-30T03:38:06.626Z,12.73
2018-01-30T03:40:34.711Z,13.80
2018-01-30T03:43:02.647Z,11.93
2018-01-30T03:45:30.592Z,12.37
2018-01-30T03:47:58.662Z,13.37
2018-01-30T03:50:26.577Z,12.77
2018-01-30T03:52:54.518Z,12.87
2018-01-30T03:55:22.553Z,13.67
2018-01-30T03:57:51.219Z,13.07
2018-01-30T04:00:19.156Z,12.40
2018-01-30T04:02:47.237Z,11.87
2018-01-30T04:05:15.467Z,11.70
2018-01-30T04:07:44.128Z,12.60
2018-01-30T04:10:12.196Z,12.90
2018-01-30T04:12:40.109Z,12.03
2018-01-30T04:15:08.356Z,12.47
2018-01-30T04:17:36.397Z,12.53
2018-01-30T04:20:04.443Z,12.50
2018-01-30T04:22:32.350Z,12.30
2018-01-30T04:25:00.413Z,13.87
2018-01-30T04:27:28.335Z,13.10
2018-01-30T04:29:56.995Z,13.00
2018-01-30T04:32:25.051Z,14.00
2018-01-30T04:34:53.148Z,13.53
2018-01-30T04:37:21.172Z,12.93
2018-01-30T04:39:49.218Z,13.37
2018-01-30T04:42:17.133Z,13.33
2018-01-30T04:44:45.056Z,13.90
2018-01-30T04:47:13.175Z,14.40
2018-01-30T04:49:41.360Z,15.30
2018-01-30T04:52:09.307Z,12.57
2018-01-30T04:54:37.345Z,12.70
2018-01-30T04:57:06.055Z,13.53
2018-01-30T04:59:33.973Z,13.43
2018-01-30T05:02:02.044Z,13.50
2018-01-30T05:04:30.128Z,13.40
2018-01-30T05:06:58.975Z,12.77
2018-01-30T05:09:27.013Z,13.70
2018-01-30T05:11:54.951Z,13.47
2018-01-30T05:14:22.880Z,13.40
2018-01-30T05:16:50.940Z,14.20
2018-01-30T05:19:18.880Z,12.70
2018-01-30T05:21:47.556Z,13.70
2018-01-30T05:24:15.645Z,14.37
2018-01-30T05:26:44.369Z,13.77
2018-01-30T05:29:12.290Z,13.33
2018-01-30T05:31:41.102Z,13.27
2018-01-30T05:34:09.017Z,11.90
2018-01-30T05:36:37.062Z,13.00
2018-01-30T05:39:05.347Z,12.90
2018-01-30T05:41:33.266Z,14.00
2018-01-30T05:44:01.922Z,14.07
2018-01-30T05:46:29.968Z,12.73
2018-01-30T05:48:57.895Z,12.67
2018-01-30T05:51:26.549Z,11.20
2018-01-30T05:53:54.609Z,10.97
2018-01-30T05:56:22.513Z,11.00
2018-01-30T05:58:50.445Z,10.17
2018-01-30T06:01:18.539Z,8.87
2018-01-30T06:03:46.449Z,8.50
2018-01-30T06:06:15.188Z,8.10
2018-01-30T06:08:43.382Z,7.50
2018-01-30T06:11:11.332Z,5.77
2018-01-30T06:13:39.272Z,5.40
2018-01-30T06:16:07.330Z,4.70
2018-01-30T06:18:36.020Z,4.10
2018-01-30T06:21:03.964Z,5.30
2018-01-30T06:23:32.023Z,5.00
2018-01-30T06:25:59.960Z,5.63
2018-01-30T06:28:27.871Z,4.80
2018-01-30T06:30:55.914Z,5.10
2018-01-30T06:33:23.817Z,5.87
2018-01-30T06:35:51.740Z,4.70
2018-01-30T06:38:19.817Z,5.30
2018-01-30T06:40:47.755Z,5.50
2018-01-30T06:43:15.691Z,7.17
2018-01-30T06:45:43.734Z,5.67
2018-01-30T06:48:11.671Z,5.47
2018-01-30T06:50:39.602Z,5.73
2018-01-30T06:53:07.671Z,5.70
2018-01-30T06:55:35.698Z,5.50
2018-01-30T06:58:03.636Z,5.97
2018-01-30T07:00:32.487Z,6.10
2018-01-30T07:03:00.420Z,5.17
2018-01-30T07:05:28.340Z,5.10
2018-01-30T07:07:56.406Z,5.80
2018-01-30T07:10:24.492Z,5.27
2018-01-30T07:12:52.402Z,5.10
2018-01-30T07:15:20.466Z,5.03
2018-01-30T07:17:48.410Z,4.90
2018-01-30T07:20:16.324Z,5.00
2018-01-30T07:22:44.396Z,5.30
2018-01-30T07:25:12.305Z,5.70
2018-01-30T07:27:40.237Z,5.87
2018-01-30T07:30:08.326Z,5.37
2018-01-30T07:32:37.421Z,5.50
2018-01-30T07:35:05.497Z,5.50
2018-01-30T07:37:33.553Z,6.37
2018-01-30T07:40:01.472Z,5.60
2018-01-30T07:42:29.387Z,5.80
2018-01-30T07:44:57.448Z,6.50
2018-01-30T07:47:25.443Z,5.20
2018-01-30T07:49:53.367Z,5.90
2018-01-30T07:52:22.166Z,5.37
2018-01-30T07:54:50.833Z,5.70
2018-01-30T07:57:20.785Z,5.57
2018-01-30T07:59:48.853Z,6.20
2018-01-30T08:02:16.791Z,5.07
2018-01-30T08:04:44.719Z,5.30
2018-01-30T08:07:12.832Z,5.03
2018-01-30T08:09:40.756Z,6.40
2018-01-30T08:12:08.805Z,5.43
2018-01-30T08:14:36.960Z,5.87
2018-01-30T08:17:05.698Z,5.87
2018-01-30T08:19:33.610Z,6.57
2018-01-30T08:22:01.646Z,5.67
2018-01-30T08:24:29.569Z,5.97
2018-01-30T08:26:58.278Z,6.50
2018-01-30T08:29:26.328Z,5.67
2018-01-30T08:31:55.010Z,6.00
2018-01-30T08:34:23.666Z,5.17
2018-01-30T08:36:51.836Z,5.73
2018-01-30T08:39:19.775Z,5.73
2018-01-30T08:41:47.681Z,6.27
2018-01-30T08:44:15.712Z,5.87
2018-01-30T08:46:43.684Z,5.83
2018-01-30T08:49:11.595Z,5.30
2018-01-30T08:51:39.664Z,5.70
2018-01-30T08:54:07.623Z,5.37
2018-01-30T08:56:35.591Z,5.40
2018-01-30T08:59:03.631Z,5.20
2018-01-30T09:01:31.549Z,5.73
2018-01-30T09:03:59.445Z,6.43
2018-01-30T09:06:28.221Z,5.80
2018-01-30T09:08:56.149Z,5.47
2018-01-30T09:11:24.071Z,6.67
2018-01-30T09:13:52.989Z,5.40
2018-01-30T09:16:20.987Z,5.50
2018-01-30T09:18:48.912Z,5.63
2018-01-30T09:21:17.733Z,5.63
2018-01-30T09:23:45.645Z,5.60
2018-01-30T09:26:13.561Z,5.57
2018-01-30T09:28:41.606Z,6.43
2018-01-30T09:31:10.258Z,6.70
2018-01-30T09:33:38.192Z,5.83
2018-01-30T09:36:06.290Z,6.00
2018-01-30T09:38:34.227Z,6.40
2018-01-30T09:41:02.151Z,6.90
2018-01-30T09:43:30.202Z,5.97
2018-01-30T09:45:58.166Z,4.80
2018-01-30T09:48:26.092Z,5.93
2018-01-30T09:50:55.172Z,6.03
2018-01-30T09:53:23.112Z,6.17
2018-01-30T09:55:51.029Z,5.57
2018-01-30T09:58:19.818Z,5.90
2018-01-30T10:00:48.713Z,5.70
2018-01-30T10:03:16.787Z,6.10
2018-01-30T10:05:45.603Z,5.40
2018-01-30T10:08:13.517Z,5.20
2018-01-30T10:10:41.447Z,5.60
2018-01-30T10:13:09.477Z,5.80
2018-01-30T10:15:38.284Z,5.60
2018-01-30T10:18:06.351Z,5.93
2018-01-30T10:20:35.138Z,5.17
2018-01-30T10:23:03.790Z,4.90
2018-01-30T10:25:31.709Z,5.40
2018-01-30T10:27:59.809Z,5.97
2018-01-30T10:30:27.718Z,4.97
2018-01-30T10:32:55.659Z,4.90
2018-01-30T10:35:23.707Z,5.17
2018-01-30T10:37:51.633Z,5.17
2018-01-30T10:40:20.316Z,6.17
2018-01-30T10:42:48.367Z,4.80
2018-01-30T10:45:16.277Z,4.80
2018-01-30T10:47:44.943Z,4.67
2018-01-30T10:50:13.005Z,4.80
2018-01-30T10:52:40.939Z,5.30
2018-01-30T10:55:08.863Z,4.90
2018-01-30T10:57:37.660Z,4.47
2018-01-30T11:00:06.321Z,5.40
2018-01-30T11:02:34.246Z,5.30
2018-01-30T11:05:02.295Z,5.07
2018-01-30T11:07:30.213Z,4.53
2018-01-30T11:09:58.156Z,4.20
2018-01-30T11:12:26.195Z,4.10
2018-01-30T11:14:54.846Z,4.60
2018-01-30T11:17:22.986Z,5.00
2018-01-30T11:19:51.079Z,5.40
2018-01-30T11:22:19.259Z,4.50
2018-01-30T11:24:47.216Z,4.77
2018-01-30T11:27:15.320Z,4.97
2018-01-30T11:29:43.267Z,4.93
2018-01-30T11:32:11.173Z,4.50
2018-01-30T11:34:39.227Z,5.27
2018-01-30T11:37:07.154Z,4.83
2018-01-30T11:39:35.096Z,5.27
2018-01-30T11:42:03.895Z,4.73
2018-01-30T11:44:32.560Z,5.70
2018-01-30T11:47:00.675Z,5.07
2018-01-30T11:49:28.730Z,4.67
2018-01-30T11:51:57.400Z,5.00
2018-01-30T11:54:25.338Z,5.33
2018-01-30T11:56:53.694Z,5.03
2018-01-30T11:59:21.618Z,4.47
2018-01-30T12:01:52.694Z,4.77
2018-01-30T12:04:21.754Z,5.07
2018-01-30T12:06:49.781Z,5.00
2018-01-30T12:09:17.723Z,5.20
2018-01-30T12:11:45.815Z,5.60
2018-01-30T12:14:13.777Z,4.87
2018-01-30T12:16:41.701Z,5.20
2018-01-30T12:19:09.765Z,5.13
2018-01-30T12:21:37.698Z,5.83
2018-01-30T12:24:05.630Z,5.43
2018-01-30T12:26:34.477Z,6.20
2018-01-30T12:29:02.406Z,5.13
2018-01-30T12:31:31.059Z,5.60
2018-01-30T12:33:59.117Z,5.07
2018-01-30T12:36:27.074Z,7.07
2018-01-30T12:38:54.991Z,4.87
2018-01-30T12:41:23.800Z,5.50
2018-01-30T12:43:51.745Z,5.50
2018-01-30T12:46:19.698Z,5.80
2018-01-30T12:48:47.803Z,6.03
2018-01-30T12:51:16.461Z,5.47
2018-01-30T12:53:44.385Z,6.37
2018-01-30T12:56:12.508Z,5.07
2018-01-30T12:58:40.440Z,5.83
2018-01-30T13:01:09.086Z,6.00
2018-01-30T13:03:37.874Z,5.60
2018-01-30T13:06:06.653Z,6.13
2018-01-30T13:08:35.339Z,6.00
2018-01-30T13:11:04.145Z,6.90
2018-01-30T13:13:32.810Z,6.30
2018-01-30T13:16:00.731Z,6.63
2018-01-30T13:18:28.779Z,6.60
2018-01-30T13:20:56.724Z,6.47
2018-01-30T13:23:24.640Z,6.80
2018-01-30T13:25:52.688Z,7.00
2018-01-30T13:28:21.350Z,6.57
2018-01-30T13:30:50.037Z,6.90
2018-01-30T13:33:19.027Z,6.97
2018-01-30T13:35:47.060Z,7.70
2018-01-30T13:38:15.816Z,7.00
2018-01-30T13:40:44.619Z,6.73
2018-01-30T13:43:12.580Z,8.30
2018-01-30T13:45:41.295Z,7.27
2018-01-30T13:48:09.340Z,7.83
2018-01-30T13:50:37.269Z,8.67
2018-01-30T13:53:05.189Z,7.83
2018-01-30T13:55:33.243Z,7.50
2018-01-30T13:58:01.933Z,9.00
2018-01-30T14:00:30.593Z,8.63
2018-01-30T14:02:58.672Z,8.30
2018-01-30T14:05:26.608Z,8.83
2018-01-30T14:07:54.800Z,8.20
2018-01-30T14:10:22.838Z,8.53
2018-01-30T14:12:50.729Z,7.33
2018-01-30T14:15:18.637Z,8.50
2018-01-30T14:17:47.453Z,7.90
2018-01-30T14:20:15.378Z,7.97
2018-01-30T14:22:43.308Z,7.60
2018-01-30T14:25:11.385Z,8.37
2018-01-30T14:27:39.345Z,9.17
2018-01-30T14:30:07.284Z,8.17
2018-01-30T14:32:36.101Z,7.90
2018-01-30T14:35:04.097Z,7.73
2018-01-30T14:37:32.028Z,7.80
2018-01-30T14:40:00.137Z,7.93
2018-01-30T14:42:28.183Z,8.20
2018-01-30T14:44:56.773Z,8.30
2018-01-30T14:47:24.920Z,8.23
2018-01-30T14:49:53.033Z,8.20
2018-01-30T14:52:20.965Z,8.47
2018-01-30T14:54:49.772Z,8.63
2018-01-30T14:57:17.787Z,9.70
2018-01-30T14:59:45.741Z,8.20
2018-01-30T15:02:13.794Z,8.43
2018-01-30T15:04:41.743Z,9.80
2018-01-30T15:07:10.619Z,8.87
2018-01-30T15:09:39.593Z,9.47
2018-01-30T15:12:07.539Z,9.20
2018-01-30T15:14:35.483Z,8.70
2018-01-30T15:17:03.632Z,9.60
2018-01-30T15:19:32.277Z,9.50
2018-01-30T15:22:00.189Z,9.70
2018-01-30T15:24:28.963Z,9.70
2018-01-30T15:26:57.001Z,9.37
2018-01-30T15:29:24.948Z,9.17
2018-01-30T15:31:53.000Z,10.40
2018-01-30T15:34:21.653Z,9.03
2018-01-30T15:36:49.691Z,9.43
2018-01-30T15:39:17.725Z,10.57
2018-01-30T15:41:46.386Z,8.57
2018-01-30T15:44:14.302Z,9.50
2018-01-30T15:46:42.432Z,9.53
2018-01-30T15:49:10.364Z,8.93
2018-01-30T15:51:38.344Z,8.30
2018-01-30T15:54:06.389Z,9.07
2018-01-30T15:56:34.375Z,9.00
2018-01-30T15:59:02.291Z,8.23
2018-01-30T16:01:30.388Z,9.80
2018-01-30T16:03:59.174Z,8.20
2018-01-30T16:06:27.840Z,8.33
2018-01-30T16:08:55.914Z,8.53
2018-01-30T16:11:23.860Z,9.07
2018-01-30T16:13:51.808Z,9.37
2018-01-30T16:16:19.872Z,10.53
2018-01-30T16:18:47.801Z,9.83
2018-01-30T16:21:16.457Z,9.33
2018-01-30T16:23:44.502Z,10.17
2018-01-30T16:26:12.488Z,8.90
2018-01-30T16:28:40.401Z,11.03
2018-01-30T16:31:09.173Z,10.37
2018-01-30T16:33:37.101Z,10.37
2018-01-30T16:36:05.115Z,8.50
2018-01-30T16:38:33.324Z,9.70
2018-01-30T16:41:02.033Z,9.70
2018-01-30T16:43:30.105Z,9.97
2018-01-30T16:45:58.327Z,11.10
2018-01-30T17:18:34.917Z,8.73
2018-01-30T17:21:04.372Z,9.10
2018-01-30T17:23:32.316Z,9.50
2018-01-30T17:26:00.852Z,9.30
2018-01-30T17:28:29.197Z,8.07
2018-01-30T17:30:59.329Z,7.97
2018-01-30T17:33:28.605Z,8.30
2018-01-30T17:35:57.481Z,8.43
2018-01-30T17:38:26.182Z,8.73
2018-01-30T17:40:54.489Z,8.13
2018-01-30T17:43:24.731Z,8.23
2018-01-30T17:45:52.738Z,8.47
2018-01-30T17:48:20.770Z,9.10
2018-01-30T17:50:48.834Z,10.23
2018-01-30T17:53:16.895Z,10.43
2018-01-30T17:55:44.975Z,9.43
2018-01-30T17:58:13.640Z,9.60
2018-01-30T18:00:41.561Z,9.10
2018-01-30T18:03:09.607Z,9.40
2018-01-30T18:05:38.467Z,9.17
2018-01-30T18:08:06.513Z,10.00
2018-01-30T18:10:34.763Z,8.83
2018-01-30T18:13:02.707Z,8.63
2018-01-30T18:15:30.618Z,7.70
2018-01-30T18:17:58.676Z,6.10
2018-01-30T18:20:26.834Z,6.40
2018-01-30T18:22:55.564Z,6.60
2018-01-30T18:25:23.836Z,5.60
2018-01-30T18:27:51.890Z,5.93
2018-01-30T18:30:20.109Z,6.20
2018-01-30T18:32:50.746Z,6.40
2018-01-30T18:35:19.101Z,6.43
2018-01-30T18:37:47.348Z,6.37
2018-01-30T18:40:15.700Z,6.10
2018-01-30T18:42:43.726Z,5.60
2018-01-30T18:45:11.950Z,5.77
2018-01-30T18:47:41.470Z,6.47
2018-01-30T18:50:11.851Z,5.67
2018-01-30T18:52:39.952Z,5.70
2018-01-30T18:55:08.105Z,5.73
2018-01-30T18:57:36.140Z,4.60
2018-01-30T19:00:07.576Z,5.63
2018-01-30T19:02:37.289Z,5.17
2018-01-30T19:05:10.812Z,5.50
2018-01-30T19:07:41.935Z,4.40
2018-01-30T19:10:10.313Z,4.77
2018-01-30T19:12:38.357Z,4.80
2018-01-30T19:15:07.716Z,5.37
2018-01-30T19:17:35.920Z,4.40
2018-01-30T19:20:04.236Z,5.20
2018-01-30T19:22:32.695Z,4.80
2018-01-30T19:25:01.587Z,5.37
2018-01-30T19:27:30.424Z,4.73
2018-01-30T19:29:58.548Z,5.40
2018-01-30T19:32:26.485Z,5.07
2018-01-30T19:34:54.411Z,4.90
2018-01-30T19:37:23.261Z,5.00
2018-01-30T19:39:51.191Z,5.83
2018-01-30T19:42:19.115Z,5.57
2018-01-30T19:44:47.184Z,5.60
2018-01-30T19:47:15.231Z,4.90
2018-01-30T19:49:43.142Z,5.17
2018-01-30T19:52:11.191Z,5.07
2018-01-30T19:54:39.124Z,5.00
2018-01-30T19:57:07.105Z,5.10
2018-01-30T19:59:35.142Z,4.50
2018-01-30T20:02:03.885Z,4.50
2018-01-30T20:04:31.809Z,4.13
2018-01-30T20:07:00.653Z,4.87
2018-01-30T20:09:28.579Z,4.60
2018-01-30T20:11:56.501Z,4.00
2018-01-30T20:14:24.545Z,4.10
2018-01-30T20:16:52.498Z,5.70
2018-01-30T20:19:20.406Z,4.63
2018-01-30T20:21:48.459Z,5.20
2018-01-30T20:24:16.365Z,5.43
2018-01-30T20:26:45.145Z,4.67
2018-01-30T20:29:13.216Z,5.17
2018-01-30T20:31:41.133Z,5.20
2018-01-30T20:34:09.042Z,4.77
2018-01-30T20:36:37.977Z,5.27
2018-01-30T20:39:06.643Z,4.77
2018-01-30T20:41:34.571Z,5.10
2018-01-30T20:44:02.616Z,5.07
2018-01-30T20:46:31.332Z,5.07
2018-01-30T20:48:59.252Z,4.10
2018-01-30T20:51:28.034Z,4.50
2018-01-30T20:53:55.952Z,4.50
2018-01-30T20:56:23.943Z,4.70
2018-01-30T20:58:51.994Z,4.67
2018-01-30T21:01:19.905Z,4.97
2018-01-30T21:03:47.824Z,4.63
2018-01-30T21:06:15.958Z,4.27
2018-01-30T21:08:43.874Z,4.97
2018-01-30T21:11:11.777Z,3.90
2018-01-30T21:13:40.096Z,4.23
2018-01-30T21:16:08.789Z,4.73
2018-01-30T21:18:37.443Z,5.07
2018-01-30T21:21:05.500Z,4.50
2018-01-30T21:23:33.431Z,4.23
2018-01-30T21:26:01.500Z,4.00
2018-01-30T21:28:29.533Z,5.80
2018-01-30T21:30:57.464Z,4.83
2018-01-30T21:33:25.377Z,4.00
2018-01-30T21:35:53.423Z,4.47
2018-01-30T21:38:21.356Z,4.83
2018-01-30T21:40:49.283Z,5.00
2018-01-30T21:43:17.325Z,4.30
2018-01-30T21:45:45.233Z,5.20
2018-01-30T21:48:13.151Z,4.50
2018-01-30T21:50:41.211Z,5.00
2018-01-30T21:53:09.256Z,5.60
2018-01-30T21:55:37.910Z,5.10
2018-01-30T21:58:05.973Z,4.73
2018-01-30T22:00:33.899Z,5.20
2018-01-30T22:03:02.590Z,4.33
2018-01-30T22:05:30.644Z,5.27
2018-01-30T22:07:59.306Z,5.53
2018-01-30T22:10:27.224Z,5.60
2018-01-30T22:12:55.314Z,4.70
2018-01-30T22:15:23.232Z,5.23
2018-01-30T22:17:51.172Z,5.10
2018-01-30T22:20:19.231Z,4.70
2018-01-30T22:22:47.161Z,6.10
2018-01-30T22:25:15.805Z,5.70
2018-01-30T22:27:44.095Z,5.93
2018-01-30T22:30:11.997Z,6.30
2018-01-30T22:32:40.653Z,5.23
2018-01-30T22:35:08.696Z,5.87
2018-01-30T22:37:36.608Z,5.67
2018-01-30T22:40:04.641Z,5.50
2018-01-30T22:42:32.713Z,5.80
2018-01-30T22:45:00.612Z,5.87
